Time;durP1;ratioP1;P1;durP2;ratioP2;P2;SDS_P1;SDS_P2;PMS_P1;PMS_P2;Temp;Humidity;BMP_temperature;BMP_pressure;BME280_temperature;BME280_humidity;BME280_pressure;Samples;Min_cycle;Max_cycle;Signal;HPM_P1;HPM_P2
2024/04/03 00:00:43;;;;;;;7.50;3.80;;;;;;;9.66;92.08;99163.02;106014;1259;102766;-79
2024/04/03 00:03:42;;;;;;;7.40;3.90;;;;;;;9.65;91.99;99170.96;106276;1263;100434;-81
2024/04/03 00:06:28;;;;;;;8.80;3.70;;;;;;;9.64;92.02;99172.21;105849;1259;98096;-81
2024/04/03 00:09:13;;;;;;;7.40;3.60;;;;;;;9.63;92.10;99170.28;105988;1263;97981;-79
2024/04/03 00:11:59;;;;;;;7.60;3.60;;;;;;;9.60;92.00;99168.27;106107;1259;97966;-82
2024/04/03 00:14:44;;;;;;;8.90;4.50;;;;;;;9.59;91.97;99165.83;106150;1261;101388;-81
2024/04/03 00:17:30;;;;;;;7.50;3.10;;;;;;;9.58;92.06;99161.55;106072;1261;99303;-80
2024/04/03 00:20:15;;;;;;;4.90;3.50;;;;;;;9.56;92.10;99158.14;105948;1260;97999;-80
2024/04/03 00:23:01;;;;;;;5.10;3.20;;;;;;;9.56;92.22;99164.48;106226;1263;97892;-81
2024/04/03 00:25:54;;;;;;;7.00;3.30;;;;;;;9.57;92.35;99168.80;106263;1262;98486;-81
2024/04/03 00:28:40;;;;;;;7.70;3.00;;;;;;;9.58;92.45;99173.63;106072;1259;219636;-79
2024/04/03 00:31:25;;;;;;;4.30;3.10;;;;;;;9.60;92.50;99171.20;106244;1259;99897;-80
2024/04/03 00:34:11;;;;;;;13.50;3.80;;;;;;;9.62;92.64;99169.61;105986;1264;97986;-81
2024/04/03 00:36:56;;;;;;;5.80;3.20;;;;;;;9.64;92.61;99169.24;106013;1261;97967;-80
2024/04/03 00:39:42;;;;;;;7.10;3.40;;;;;;;9.64;92.53;99174.67;105942;1260;98060;-81
2024/04/03 00:42:27;;;;;;;4.90;3.50;;;;;;;9.65;92.64;99179.02;106176;1261;101798;-81
2024/04/03 00:45:13;;;;;;;6.90;3.70;;;;;;;9.67;92.58;99180.21;105935;1259;99282;-80
2024/04/03 00:47:58;;;;;;;6.10;3.30;;;;;;;9.68;92.80;99180.58;106005;1264;99203;-81
2024/04/03 00:50:45;;;;;;;5.40;3.00;;;;;;;9.67;92.82;99173.01;106094;1259;97948;-80
2024/04/03 00:53:31;;;;;;;6.90;3.40;;;;;;;9.65;92.93;99170.11;106392;1257;97948;-80
2024/04/03 00:56:17;;;;;;;8.60;3.50;;;;;;;9.65;92.95;99171.95;106178;1263;101532;-81
2024/04/03 00:59:03;;;;;;;5.70;3.40;;;;;;;9.65;92.87;99168.66;106296;1262;99215;-81
2024/04/03 01:01:49;;;;;;;10.10;3.40;;;;;;;9.66;92.92;99166.88;105967;1259;97918;-80
2024/04/03 01:04:35;;;;;;;5.80;3.60;;;;;;;9.67;92.69;99167.51;106199;1259;97974;-81
2024/04/03 01:07:21;;;;;;;6.20;3.10;;;;;;;9.67;92.91;99167.66;106300;1259;96416;-81
2024/04/03 01:10:08;;;;;;;8.00;3.00;;;;;;;9.67;92.87;99158.95;106173;1263;102085;-81
2024/04/03 01:12:56;;;;;;;6.80;2.90;;;;;;;9.68;92.63;99164.20;106073;1259;100253;-80
2024/04/03 01:15:41;;;;;;;6.80;3.10;;;;;;;9.67;92.51;99165.35;106138;1259;98865;-80
2024/04/03 01:18:27;;;;;;;4.90;3.00;;;;;;;9.68;92.42;99159.55;106358;1263;98090;-81
2024/04/03 01:21:13;;;;;;;6.60;3.10;;;;;;;9.68;92.30;99165.20;106334;1262;98480;-81
2024/04/03 01:23:59;;;;;;;6.70;2.80;;;;;;;9.69;92.40;99163.58;106100;1259;101376;-79
2024/04/03 01:26:44;;;;;;;8.00;3.30;;;;;;;9.70;92.31;99163.29;106158;1260;100424;-80
2024/04/03 01:29:30;;;;;;;4.90;3.00;;;;;;;9.71;92.30;99165.38;106051;1259;97860;-80
2024/04/03 01:32:15;;;;;;;6.80;3.10;;;;;;;9.71;92.37;99163.73;106158;1263;97931;-81
2024/04/03 01:35:01;;;;;;;4.90;3.10;;;;;;;9.71;92.47;99167.96;106040;1259;96230;-81
2024/04/03 01:37:46;;;;;;;6.50;2.80;;;;;;;9.72;92.39;99169.70;106218;1258;101361;-81
2024/04/03 01:40:32;;;;;;;6.00;3.30;;;;;;;9.72;92.06;99171.38;106156;1259;100842;-81
2024/04/03 01:43:17;;;;;;;6.50;2.90;;;;;;;9.72;92.20;99175.81;106188;1264;99120;-82
2024/04/03 01:46:03;;;;;;;3.50;2.60;;;;;;;9.74;92.35;99171.02;106231;1260;97883;-79
2024/04/03 01:48:48;;;;;;;7.60;3.10;;;;;;;9.73;92.45;99171.73;106179;1259;98399;-81
2024/04/03 01:51:33;;;;;;;6.40;3.30;;;;;;;9.74;92.47;99167.82;105948;1263;102150;-80
2024/04/03 01:54:18;;;;;;;6.10;3.00;;;;;;;9.75;92.28;99174.89;106153;1263;99135;-80
2024/04/03 01:57:04;;;;;;;7.30;2.70;;;;;;;9.76;92.24;99173.33;106335;1259;98120;-81
2024/04/03 01:59:49;;;;;;;4.90;3.30;;;;;;;9.77;92.34;99171.30;106091;1262;97888;-80
2024/04/03 02:02:35;;;;;;;4.70;2.80;;;;;;;9.76;92.44;99177.05;106279;1259;100298;-80
2024/04/03 02:05:20;;;;;;;6.90;3.10;;;;;;;9.77;92.63;99172.28;106104;1261;101433;-81
2024/04/03 02:08:06;;;;;;;5.10;2.90;;;;;;;9.77;93.12;99169.70;106154;1263;99125;-80
2024/04/03 02:10:51;;;;;;;6.60;3.30;;;;;;;9.75;93.27;99175.46;106007;1264;98061;-81
2024/04/03 02:13:37;;;;;;;8.70;3.30;;;;;;;9.73;93.36;99174.16;106271;1260;98449;-81
2024/04/03 02:16:24;;;;;;;5.50;3.10;;;;;;;9.72;93.32;99170.34;106013;1257;98459;-79
2024/04/03 02:19:10;;;;;;;7.80;2.80;;;;;;;9.71;93.07;99169.28;106278;1263;101370;-80
2024/04/03 02:21:56;;;;;;;9.40;3.10;;;;;;;9.68;92.96;99164.40;106236;1260;100489;-81
2024/04/03 02:24:41;;;;;;;6.50;2.90;;;;;;;9.66;93.06;99164.09;106179;1259;99021;-82
2024/04/03 02:27:26;;;;;;;4.30;2.10;;;;;;;9.65;93.03;99167.38;106104;1261;98097;-82
2024/04/03 02:30:12;;;;;;;4.40;2.30;;;;;;;9.65;93.03;99165.54;105466;1261;98630;-81
2024/04/03 02:32:57;;;;;;;4.70;2.70;;;;;;;9.63;92.85;99157.58;106179;1262;102344;-80
2024/04/03 02:35:43;;;;;;;3.50;2.00;;;;;;;9.61;93.03;99150.91;105976;1259;100342;-81
2024/04/03 02:38:28;;;;;;;6.50;2.30;;;;;;;9.60;92.91;99145.58;106115;1259;98966;-82
2024/04/03 02:41:16;;;;;;;4.00;2.50;;;;;;;9.57;92.86;99147.36;106189;1259;98042;-81
2024/04/03 02:44:01;;;;;;;4.40;2.40;;;;;;;9.56;92.87;99146.68;106253;1260;99472;-80
2024/04/03 02:46:47;;;;;;;3.20;1.90;;;;;;;9.54;92.92;99145.98;106250;1264;101489;-81
2024/04/03 02:49:33;;;;;;;3.90;2.20;;;;;;;9.56;92.86;99145.61;106032;1264;99119;-81
2024/04/03 02:52:18;;;;;;;5.50;2.30;;;;;;;9.56;93.06;99147.30;106181;1260;99577;-82
2024/04/03 02:55:04;;;;;;;3.40;2.20;;;;;;;9.55;92.93;99148.00;106073;1259;98741;-81
2024/04/03 02:57:49;;;;;;;3.00;1.90;;;;;;;9.53;92.98;99143.07;106184;1264;98611;-80
2024/04/03 03:00:35;;;;;;;4.50;2.40;;;;;;;9.51;92.98;99144.40;106132;1259;102723;-81
2024/04/03 03:03:25;;;;;;;4.70;2.70;;;;;;;9.50;92.66;99149.21;106111;1263;100089;-80
2024/04/03 03:06:11;;;;;;;8.10;2.80;;;;;;;9.50;92.85;99132.23;106239;1259;98683;-81
2024/04/03 03:08:57;;;;;;;4.90;2.60;;;;;;;9.48;92.94;99121.40;106338;1259;97979;-82
2024/04/03 03:11:42;;;;;;;6.60;2.70;;;;;;;9.47;93.01;99124.61;106290;1260;98490;-82
2024/04/03 03:14:29;;;;;;;3.60;2.60;;;;;;;9.45;93.24;99121.46;106060;1259;101478;-81
2024/04/03 03:17:14;;;;;;;3.70;2.40;;;;;;;9.44;93.21;99120.39;105990;1259;99234;-80
2024/04/03 03:20:00;;;;;;;3.20;2.30;;;;;;;9.43;93.59;99118.80;106106;1263;98368;-80
2024/04/03 03:22:46;;;;;;;5.10;2.30;;;;;;;9.43;93.39;99127.84;106213;1258;97985;-81
2024/04/03 03:25:32;;;;;;;4.70;2.90;;;;;;;9.43;93.54;99126.89;106226;1259;98484;-81
2024/04/03 03:28:21;;;;;;;5.20;2.70;;;;;;;9.43;93.58;99128.70;106274;1259;101347;-81
2024/04/03 03:31:08;;;;;;;5.20;2.70;;;;;;;9.43;93.53;99127.88;106222;1259;99239;-81
2024/04/03 03:33:55;;;;;;;3.70;2.70;;;;;;;9.42;93.69;99127.06;106192;1258;97868;-82
2024/04/03 03:36:40;;;;;;;3.90;2.80;;;;;;;9.42;93.84;99130.15;106176;1259;97971;-81
2024/04/03 03:39:25;;;;;;;7.80;2.70;;;;;;;9.41;93.80;99132.02;106180;1261;98490;-79
2024/04/03 03:42:11;;;;;;;6.00;2.60;;;;;;;9.42;93.83;99131.02;105951;1259;101986;-81
2024/04/03 03:44:56;;;;;;;4.10;2.80;;;;;;;9.42;94.05;99136.43;106331;1257;99125;-79
2024/04/03 03:47:42;;;;;;;5.30;2.70;;;;;;;9.44;94.22;99143.53;106161;1263;98452;-80
2024/04/03 03:53:34;;;;;;;5.00;2.80;;;;;;;9.43;94.07;99141.33;106398;1259;97837;-81
2024/04/03 03:56:20;;;;;;;4.00;2.80;;;;;;;9.43;94.16;99137.46;106227;1258;102071;-80
2024/04/03 03:59:05;;;;;;;2.60;2.40;;;;;;;9.43;94.05;99135.98;106241;1259;99139;-80
2024/04/03 04:01:51;;;;;;;4.30;2.80;;;;;;;9.44;94.33;99140.01;106376;1259;98492;-81
2024/04/03 04:04:37;;;;;;;3.20;2.70;;;;;;;9.44;94.45;99142.76;105982;1268;98002;-82
2024/04/03 04:07:23;;;;;;;3.50;2.80;;;;;;;9.44;94.44;99141.73;106245;1259;98474;-82
2024/04/03 04:10:08;;;;;;;4.20;2.80;;;;;;;9.44;94.71;99140.29;106184;1260;102440;-79
2024/04/03 04:12:54;;;;;;;5.10;3.00;;;;;;;9.45;94.75;99136.58;106201;1260;99084;-81
2024/04/03 04:15:40;;;;;;;5.30;3.40;;;;;;;9.47;94.70;99136.33;106300;1259;99005;-80
2024/04/03 04:18:26;;;;;;;3.70;3.00;;;;;;;9.48;94.74;99133.52;106358;1258;98001;-80
2024/04/03 04:21:11;;;;;;;4.40;3.90;;;;;;;9.49;94.91;99129.70;106316;1260;98718;-80
2024/04/03 04:23:57;;;;;;;5.40;3.90;;;;;;;9.49;95.06;99130.40;106418;1261;103156;-81
2024/04/03 04:26:42;;;;;;;6.10;4.30;;;;;;;9.48;95.20;99130.00;106473;1258;99122;-80
2024/04/03 04:29:28;;;;;;;4.80;3.90;;;;;;;9.46;95.34;99132.77;106373;1258;97892;-79
2024/04/03 04:32:14;;;;;;;5.30;3.70;;;;;;;9.47;95.40;99132.79;106321;1259;98692;-80
2024/04/03 04:35:00;;;;;;;4.50;3.50;;;;;;;9.48;95.57;99132.21;106440;1258;97908;-81
2024/04/03 04:37:45;;;;;;;7.00;4.50;;;;;;;9.50;95.60;99127.06;105669;1259;101372;-79
2024/04/03 04:40:30;;;;;;;5.40;4.60;;;;;;;9.51;95.59;99128.48;106114;1259;100408;-81
2024/04/03 04:43:15;;;;;;;7.60;4.00;;;;;;;9.51;95.81;99127.17;106288;1257;98806;-80
2024/04/03 04:46:04;;;;;;;6.10;4.90;;;;;;;9.52;95.82;99126.14;106410;1262;97800;-81
2024/04/03 04:48:49;;;;;;;4.50;3.90;;;;;;;9.52;95.92;99124.95;106259;1264;97950;-81
2024/04/03 04:51:34;;;;;;;6.00;4.60;;;;;;;9.54;96.04;99126.13;106617;1259;102807;-81
2024/04/03 04:54:22;;;;;;;7.80;4.30;;;;;;;9.55;96.11;99125.17;106474;1264;101481;-80
2024/04/03 04:57:09;;;;;;;5.10;4.40;;;;;;;9.58;96.23;99124.30;106436;1259;99258;-81
2024/04/03 04:59:55;;;;;;;4.20;3.30;;;;;;;9.61;96.37;99128.98;106373;1264;97978;-81
2024/04/03 05:02:40;;;;;;;9.30;5.00;;;;;;;9.64;96.59;99131.04;106228;1263;97994;-80
2024/04/03 05:05:31;;;;;;;5.40;4.30;;;;;;;9.64;96.38;99132.11;106420;1263;101357;-81
2024/04/03 05:08:18;;;;;;;9.40;4.30;;;;;;;9.64;96.25;99134.16;105813;1260;100452;-80
2024/04/03 05:11:03;;;;;;;5.90;4.00;;;;;;;9.64;96.34;99132.69;106467;1258;97906;-81
2024/04/03 05:13:49;;;;;;;5.40;4.20;;;;;;;9.64;96.38;99134.20;106476;1258;96576;-80
2024/04/03 05:16:34;;;;;;;4.90;3.50;;;;;;;9.66;96.30;99136.61;106334;1264;98557;-81
2024/04/03 05:19:19;;;;;;;5.10;3.90;;;;;;;9.68;96.35;99138.87;106462;1259;101338;-80
2024/04/03 05:22:10;;;;;;;5.50;3.90;;;;;;;9.69;96.15;99138.01;106251;1263;100376;-81
2024/04/03 05:24:56;;;;;;;4.80;3.70;;;;;;;9.70;96.42;99138.52;106367;1258;98506;-80
2024/04/03 05:27:44;;;;;;;6.20;3.40;;;;;;;9.70;96.60;99136.88;106351;1262;97975;-86
2024/04/03 05:30:30;;;;;;;5.50;3.80;;;;;;;9.69;96.71;99141.58;106459;1264;98078;-89
2024/04/03 05:33:16;;;;;;;5.30;3.60;;;;;;;9.69;97.03;99145.64;106694;1262;101392;-91
2024/04/03 05:36:07;;;;;;;6.20;4.20;;;;;;;9.69;97.40;99141.52;106382;1260;101656;-87
2024/04/03 05:38:53;;;;;;;7.30;4.00;;;;;;;9.68;97.62;99146.63;106354;1259;98007;-87
2024/04/03 05:41:38;;;;;;;9.40;6.10;;;;;;;9.67;97.58;99150.59;106208;1258;97918;-86
2024/04/03 05:44:24;;;;;;;9.20;5.50;;;;;;;9.65;97.97;99152.62;105824;1265;97846;-85
2024/04/03 05:47:10;;;;;;;10.90;8.80;;;;;;;9.62;98.17;99153.63;106373;1259;101322;-86
2024/04/03 05:49:56;;;;;;;11.90;9.50;;;;;;;9.59;98.59;99156.68;106065;1264;99508;-87
2024/04/03 05:52:42;;;;;;;10.70;9.30;;;;;;;9.56;98.83;99159.96;106242;1263;97908;-85
2024/04/03 05:55:28;;;;;;;10.90;7.70;;;;;;;9.53;99.51;99161.00;106234;1259;97999;-85
2024/04/03 05:58:17;;;;;;;10.30;7.10;;;;;;;9.52;99.92;99160.02;106664;1259;97900;-90
2024/04/03 06:04:50;;;;;;;7.60;5.70;;;;;;;9.48;100.00;99152.27;106802;1261;101479;-80
2024/04/03 06:07:36;;;;;;;8.00;4.60;;;;;;;9.49;100.00;99156.70;106308;1263;99654;-85
2024/04/03 06:10:23;;;;;;;6.40;4.50;;;;;;;9.48;100.00;99153.02;106186;1266;97691;-87
2024/04/03 06:13:12;;;;;;;5.50;4.30;;;;;;;9.46;100.00;99153.81;106250;1264;97934;-83
2024/04/03 06:15:59;;;;;;;5.10;4.20;;;;;;;9.44;100.00;99154.02;106078;1260;102440;-84
2024/04/03 06:18:45;;;;;;;7.40;4.40;;;;;;;9.45;100.00;99151.73;105936;1261;100824;-86
2024/04/03 06:21:31;;;;;;;8.20;4.40;;;;;;;9.46;100.00;99149.95;105836;1261;100257;-85
2024/04/03 06:24:19;;;;;;;7.00;4.60;;;;;;;9.49;100.00;99151.33;105889;1265;98051;-85
2024/04/03 06:27:04;;;;;;;7.50;4.50;;;;;;;9.58;100.00;99154.08;106108;1264;97960;-83
2024/04/03 06:29:50;;;;;;;5.00;4.40;;;;;;;9.64;100.00;99148.36;105858;1260;101372;-81
2024/04/03 06:32:36;;;;;;;6.90;4.30;;;;;;;9.68;100.00;99155.89;106009;1260;99251;-83
2024/04/03 06:35:24;;;;;;;5.00;4.20;;;;;;;9.74;100.00;99163.58;106069;1260;98815;-82
2024/04/03 06:38:25;;;;;;;5.20;3.80;;;;;;;9.81;100.00;99168.71;106221;1260;97821;-86
2024/04/03 06:41:10;;;;;;;6.40;3.70;;;;;;;9.82;100.00;99177.05;105950;1263;98065;-82
2024/04/03 06:44:17;;;;;;;4.40;3.70;;;;;;;9.76;100.00;99175.41;106616;1263;103231;-89
2024/04/03 06:47:04;;;;;;;7.00;4.60;;;;;;;9.70;100.00;99177.44;106280;1260;100386;-87
2024/04/03 06:50:00;;;;;;;5.50;4.30;;;;;;;9.65;100.00;99180.41;106461;1259;98172;-88
2024/04/03 06:52:46;;;;;;;6.20;5.20;;;;;;;9.59;100.00;99182.92;106003;1264;97978;-79
2024/04/03 06:55:32;;;;;;;6.60;4.60;;;;;;;9.55;100.00;99187.55;106094;1265;96470;-87
2024/04/03 06:58:18;;;;;;;7.20;4.40;;;;;;;9.55;100.00;99186.86;105982;1267;103778;-84
2024/04/03 07:01:06;;;;;;;8.10;4.80;;;;;;;9.51;100.00;99187.05;106402;1260;100549;-86
2024/04/03 07:03:52;;;;;;;5.80;3.50;;;;;;;9.51;100.00;99194.82;106786;1260;100156;-84
2024/04/03 07:06:38;;;;;;;7.00;4.40;;;;;;;9.53;100.00;99200.73;106607;1260;97998;-86
2024/04/03 07:09:24;;;;;;;6.30;3.90;;;;;;;9.58;100.00;99200.66;106097;1268;98061;-83
2024/04/03 07:12:10;;;;;;;7.10;4.00;;;;;;;9.63;100.00;99200.14;105999;1264;101329;-83
2024/04/03 07:14:55;;;;;;;5.70;3.70;;;;;;;9.68;100.00;99201.88;106545;1260;100817;-86
2024/04/03 07:17:42;;;;;;;6.80;3.60;;;;;;;9.72;100.00;99201.02;106702;1260;99119;-88
2024/04/03 07:20:29;;;;;;;5.40;3.50;;;;;;;9.74;100.00;99201.39;106460;1266;98013;-88
2024/04/03 07:23:15;;;;;;;8.00;4.60;;;;;;;9.78;100.00;99201.77;106755;1261;97898;-89
2024/04/03 07:26:06;;;;;;;8.00;5.10;;;;;;;9.84;100.00;99200.63;106645;1260;102598;-91
2024/04/03 07:28:52;;;;;;;;;;;;;;;9.94;100.00;99202.70;106390;1260;100586;-88
2024/04/03 07:31:38;;;;;;;8.50;4.70;;;;;;;10.03;100.00;99198.56;106726;1267;99143;-85
2024/04/03 07:34:24;;;;;;;6.90;4.00;;;;;;;10.13;100.00;99196.25;106162;1265;98174;-88
2024/04/03 07:37:10;;;;;;;8.10;4.10;;;;;;;10.21;100.00;99193.31;106166;1260;97981;-87
2024/04/03 07:39:56;;;;;;;9.90;6.50;;;;;;;10.31;100.00;99197.79;105971;1263;102641;-83
2024/04/03 07:42:44;;;;;;;8.20;5.20;;;;;;;10.39;100.00;99196.45;106211;1260;100477;-88
2024/04/03 07:45:30;;;;;;;6.30;5.20;;;;;;;10.45;100.00;99200.34;106049;1265;100246;-89
2024/04/03 07:48:17;;;;;;;7.70;5.00;;;;;;;10.48;100.00;99204.77;106227;1266;97971;-85
2024/04/03 07:51:04;;;;;;;11.30;4.50;;;;;;;10.48;100.00;99203.70;106170;1260;97772;-84
2024/04/03 07:53:50;;;;;;;6.50;4.70;;;;;;;10.49;100.00;99211.20;105914;1264;103559;-85
2024/04/03 07:56:36;;;;;;;7.60;4.20;;;;;;;10.53;100.00;99210.55;106231;1259;101347;-87
2024/04/03 07:59:25;;;;;;;5.10;3.60;;;;;;;10.64;100.00;99207.95;106318;1267;100234;-86
2024/04/03 08:02:11;;;;;;;7.90;3.90;;;;;;;10.73;100.00;99204.93;106116;1259;97979;-85
2024/04/03 08:04:56;;;;;;;4.10;3.50;;;;;;;10.80;100.00;99194.32;106064;1265;98393;-80
2024/04/03 08:07:45;;;;;;;8.70;4.00;;;;;;;10.87;100.00;99194.66;106437;1263;101383;-81
2024/04/03 08:10:30;;;;;;;4.30;3.70;;;;;;;10.91;100.00;99195.80;106639;1259;100388;-80
2024/04/03 08:13:16;;;;;;;7.40;4.50;;;;;;;10.95;100.00;99196.67;106259;1259;97983;-79
2024/04/03 08:16:06;;;;;;;6.40;3.60;;;;;;;10.94;99.98;99195.42;106227;1260;98441;-80
2024/04/03 08:18:51;;;;;;;5.30;4.70;;;;;;;10.90;99.82;99194.16;106182;1263;97987;-81
2024/04/03 08:21:36;;;;;;;6.60;4.30;;;;;;;10.84;99.64;99197.06;106145;1261;102100;-80
2024/04/03 08:24:23;;;;;;;5.50;4.30;;;;;;;10.82;99.54;99198.54;106145;1264;99132;-80
2024/04/03 08:27:10;;;;;;;5.90;4.10;;;;;;;10.82;99.59;99202.45;106554;1260;99452;-81
2024/04/03 08:29:57;;;;;;;5.70;4.30;;;;;;;10.82;99.39;99204.59;106717;1262;97966;-82
2024/04/03 08:32:42;;;;;;;6.60;4.70;;;;;;;10.79;99.58;99211.73;106556;1260;97988;-81
2024/04/03 08:35:28;;;;;;;7.90;4.70;;;;;;;10.76;99.89;99231.27;106292;1263;101430;-78
2024/04/03 08:38:13;;;;;;;4.80;2.70;;;;;;;10.63;98.82;99249.52;106437;1259;99181;-81
2024/04/03 08:41:02;;;;;;;7.40;3.10;;;;;;;10.35;97.68;99265.33;106264;1258;98045;-81
2024/04/03 08:43:51;;;;;;;23.50;7.20;;;;;;;10.13;97.63;99265.85;106277;1263;97974;-81
2024/04/03 08:46:57;;;;;;;8.20;3.60;;;;;;;9.97;97.94;99264.65;106374;1260;97988;-91
2024/04/03 08:49:43;;;;;;;11.70;4.60;;;;;;;9.84;98.19;99267.77;106819;1260;110382;-86
2024/04/03 08:52:30;;;;;;;4.00;1.70;;;;;;;9.71;98.36;99268.49;106231;1262;100343;-85
2024/04/03 08:55:16;;;;;;;8.80;2.70;;;;;;;9.63;99.10;99266.86;105989;1259;99048;-82
2024/04/03 08:58:02;;;;;;;5.70;2.60;;;;;;;9.61;99.76;99274.55;105896;1273;97989;-84
2024/04/03 09:00:52;;;;;;;5.00;2.10;;;;;;;9.66;100.00;99280.41;105951;1259;97923;-85
2024/04/03 09:03:38;;;;;;;6.80;2.40;;;;;;;9.72;99.98;99283.02;105719;1260;101414;-86
2024/04/03 09:06:24;;;;;;;4.90;2.30;;;;;;;9.76;99.83;99282.09;106008;1260;100429;-83
2024/04/03 09:09:25;;;;;;;3.50;1.40;;;;;;;9.80;99.94;99285.24;105942;1264;99981;-85
2024/04/03 09:12:11;;;;;;;;;;;;;;;9.84;99.92;99295.71;106168;1259;97967;-85
2024/04/03 09:15:07;;;;;;;3.40;1.40;;;;;;;9.87;99.54;99296.92;106012;1263;97974;-84
2024/04/03 09:18:03;;;;;;;2.40;1.10;;;;;;;9.93;99.77;99297.14;106056;1260;102971;-87
2024/04/03 09:20:50;;;;;;;5.00;2.20;;;;;;;9.97;99.60;99299.18;106236;1266;99039;-84
2024/04/03 09:23:37;;;;;;;3.40;2.40;;;;;;;10.00;99.36;99311.95;106367;1260;99611;-85
2024/04/03 09:26:25;;;;;;;2.40;1.60;;;;;;;10.01;98.92;99320.02;105820;1264;98012;-85
2024/04/03 09:29:15;;;;;;;4.20;2.20;;;;;;;10.01;98.82;99315.62;105738;1264;98093;-84
2024/04/03 09:32:05;;;;;;;2.80;1.70;;;;;;;10.03;98.80;99313.75;106048;1260;103586;-86
2024/04/03 09:34:57;;;;;;;2.60;1.30;;;;;;;10.01;98.31;99318.45;106470;1259;99131;-90
2024/04/03 09:37:43;;;;;;;2.80;1.20;;;;;;;9.98;98.05;99325.27;106225;1259;100120;-83
2024/04/03 09:40:30;;;;;;;3.70;1.70;;;;;;;9.95;97.87;99327.30;106297;1260;97962;-83
2024/04/03 09:43:23;;;;;;;3.50;1.70;;;;;;;9.94;98.11;99330.55;105879;1259;99781;-83
2024/04/03 09:46:13;;;;;;;2.70;2.50;;;;;;;9.94;98.43;99331.78;106179;1260;102893;-90
2024/04/03 09:49:03;;;;;;;3.90;2.00;;;;;;;9.95;98.95;99340.84;106576;1261;100456;-89
2024/04/03 09:51:50;;;;;;;5.00;2.50;;;;;;;9.92;98.77;99348.91;106241;1266;99750;-88
2024/04/03 09:54:37;;;;;;;4.80;2.60;;;;;;;9.92;99.02;99345.41;106068;1260;99218;-81
2024/04/03 09:57:24;;;;;;;2.90;2.20;;;;;;;9.92;99.26;99346.11;105811;1260;99777;-83
2024/04/03 10:00:13;;;;;;;3.00;2.20;;;;;;;9.92;99.28;99351.35;106074;1266;102626;-83
2024/04/03 10:02:59;;;;;;;4.20;2.10;;;;;;;9.86;98.94;99352.69;106572;1264;99188;-86
2024/04/03 10:05:45;;;;;;;6.10;3.40;;;;;;;9.84;99.16;99352.45;106355;1263;98962;-86
2024/04/03 10:08:33;;;;;;;5.00;2.50;;;;;;;9.83;99.11;99355.59;106231;1258;97757;-86
2024/04/03 10:11:19;;;;;;;4.00;2.50;;;;;;;9.83;99.31;99359.25;106596;1259;98179;-89
2024/04/03 10:14:05;;;;;;;4.90;2.90;;;;;;;9.85;99.57;99359.23;106026;1263;102116;-88
2024/04/03 10:16:53;;;;;;;4.20;2.90;;;;;;;9.92;99.65;99354.84;106562;1258;100458;-86
2024/04/03 10:19:44;;;;;;;4.40;2.90;;;;;;;10.08;99.95;99355.14;106718;1259;99107;-90
2024/04/03 10:22:30;;;;;;;4.30;2.90;;;;;;;10.24;100.00;99360.88;106236;1259;97965;-86
2024/04/03 10:25:17;;;;;;;7.80;3.00;;;;;;;10.33;99.39;99366.77;106021;1260;97943;-86
2024/04/03 10:28:12;;;;;;;6.30;3.40;;;;;;;10.37;99.06;99372.42;105735;1259;102570;-85
2024/04/03 10:30:58;;;;;;;5.00;2.90;;;;;;;10.45;99.37;99376.70;105812;1261;100396;-86
2024/04/03 10:33:51;;;;;;;10.00;7.30;;;;;;;10.49;98.40;99377.66;105731;1259;99947;-86
2024/04/03 10:36:38;;;;;;;7.20;4.50;;;;;;;10.47;97.49;99379.41;105772;1263;98006;-85
2024/04/03 10:39:24;;;;;;;5.40;3.30;;;;;;;10.39;97.22;99390.27;105837;1259;97905;-86
2024/04/03 10:42:10;;;;;;;5.60;3.60;;;;;;;10.32;97.20;99393.17;105763;1259;102568;-86
2024/04/03 10:44:56;;;;;;;9.60;4.60;;;;;;;10.26;97.86;99393.69;105713;1262;100344;-85
2024/04/03 10:47:43;;;;;;;16.80;7.30;;;;;;;10.22;98.84;99398.95;105953;1260;99024;-84
2024/04/03 10:50:32;;;;;;;10.70;5.40;;;;;;;10.14;98.75;99399.14;105926;1262;98482;-86
2024/04/03 10:53:20;;;;;;;10.00;4.00;;;;;;;10.08;99.26;99403.05;105985;1260;98498;-83
2024/04/03 10:56:05;;;;;;;6.50;2.70;;;;;;;10.03;99.29;99409.45;105814;1259;102616;-83
2024/04/03 10:58:57;;;;;;;7.90;2.70;;;;;;;9.97;98.96;99418.86;105778;1260;100447;-86
2024/04/03 11:01:44;;;;;;;6.60;4.20;;;;;;;9.91;98.58;99416.91;105802;1276;98990;-84
2024/04/03 11:04:33;;;;;;;5.00;2.50;;;;;;;9.85;98.27;99421.60;105903;1266;98056;-85
2024/04/03 11:07:19;;;;;;;6.30;3.20;;;;;;;9.83;98.40;99430.34;106086;1262;98084;-82
2024/04/03 11:10:09;;;;;;;5.90;3.00;;;;;;;9.80;98.48;99435.25;105919;1260;101453;-84
2024/04/03 11:13:11;;;;;;;4.30;2.60;;;;;;;9.72;97.81;99432.05;105972;1264;99144;-86
2024/04/03 11:15:58;;;;;;;3.80;2.60;;;;;;;9.63;98.22;99440.92;105781;1262;99070;-87
2024/04/03 11:18:44;;;;;;;6.60;3.30;;;;;;;9.61;98.66;99447.60;106168;1260;97978;-79
2024/04/03 11:21:30;;;;;;;5.80;3.20;;;;;;;9.62;98.80;99451.13;106013;1260;98531;-86
2024/04/03 11:24:18;;;;;;;7.60;4.00;;;;;;;9.61;98.84;99447.59;105824;1260;102764;-87
2024/04/03 11:27:06;;;;;;;8.20;4.40;;;;;;;9.61;98.66;99453.34;105770;1261;99019;-84
2024/04/03 11:29:55;;;;;;;9.10;3.30;;;;;;;9.58;98.13;99458.53;105959;1260;98854;-82
2024/04/03 11:32:42;;;;;;;5.30;3.40;;;;;;;9.59;97.95;99468.40;105864;1265;97982;-82
2024/04/03 11:35:28;;;;;;;6.30;3.80;;;;;;;9.63;97.81;99473.38;105873;1264;97854;-81
2024/04/03 11:38:14;;;;;;;7.90;4.30;;;;;;;9.66;97.54;99471.60;106153;1261;101385;-81
2024/04/03 11:40:59;;;;;;;7.30;3.40;;;;;;;9.71;96.98;99469.95;106056;1264;100358;-83
2024/04/03 11:43:45;;;;;;;6.10;3.30;;;;;;;9.76;96.64;99472.13;105965;1261;98790;-81
2024/04/03 11:46:30;;;;;;;6.60;3.60;;;;;;;9.82;95.76;99471.16;106075;1260;99234;-82
2024/04/03 11:49:17;;;;;;;3.60;2.70;;;;;;;9.83;95.00;99475.64;106047;1261;97873;-82
2024/04/03 11:52:04;;;;;;;5.30;2.90;;;;;;;9.83;93.75;99473.05;105970;1262;109660;-80
2024/04/03 11:54:50;;;;;;;3.00;2.20;;;;;;;9.87;93.54;99472.27;105375;1260;99105;-81
2024/04/03 11:57:36;;;;;;;4.20;2.50;;;;;;;9.94;92.97;99471.01;105920;1260;98353;-82
2024/04/03 12:00:22;;;;;;;4.10;2.90;;;;;;;10.01;93.24;99477.31;105817;1260;97987;-81
2024/04/03 12:03:08;;;;;;;5.10;2.40;;;;;;;10.05;92.28;99482.13;106029;1264;98023;-81
2024/04/03 12:05:54;;;;;;;3.30;2.30;;;;;;;10.04;92.25;99497.86;105928;1261;111238;-81
2024/04/03 12:08:39;;;;;;;2.20;2.00;;;;;;;10.01;92.26;99506.21;106083;1260;109081;-80
2024/04/03 12:11:25;;;;;;;5.50;2.40;;;;;;;9.95;91.44;99510.27;106108;1261;98003;-81
2024/04/03 12:14:11;;;;;;;2.70;2.20;;;;;;;9.87;91.18;99512.88;106497;1260;97905;-87
2024/04/03 12:17:04;;;;;;;5.50;2.40;;;;;;;9.82;90.57;99517.23;106264;1260;97964;-93
2024/04/03 12:20:13;;;;;;;2.70;2.20;;;;;;;9.74;89.66;99522.19;106855;1262;101512;-81
2024/04/03 12:22:56;;;;;;;3.00;2.00;;;;;;;9.65;88.87;99529.65;98763;1261;10003121;-80
2024/04/03 12:25:42;;;;;;;2.30;1.90;;;;;;;9.52;88.07;99540.02;106077;1261;97848;-81
2024/04/03 12:28:27;;;;;;;5.00;2.30;;;;;;;9.37;87.07;99543.80;106078;1262;149015;-79
2024/04/03 12:31:12;;;;;;;2.30;1.70;;;;;;;9.21;86.50;99547.10;106256;1262;100354;-80
2024/04/03 12:33:58;;;;;;;2.30;1.70;;;;;;;9.08;86.39;99553.66;106145;1261;99020;-80
2024/04/03 12:36:44;;;;;;;2.00;1.70;;;;;;;9.02;85.79;99555.66;106076;1260;98097;-80
2024/04/03 12:39:29;;;;;;;2.30;1.10;;;;;;;8.94;84.72;99556.30;105789;1260;98064;-85
2024/04/03 12:42:15;;;;;;;2.80;2.00;;;;;;;8.91;84.73;99561.18;106059;1260;101414;-81
2024/04/03 12:45:01;;;;;;;3.40;1.70;;;;;;;8.90;83.86;99561.98;106130;1260;99127;-82
2024/04/03 12:47:47;;;;;;;10.50;4.70;;;;;;;8.86;82.83;99567.55;106228;1261;98987;-81
2024/04/03 12:50:32;;;;;;;4.60;2.60;;;;;;;8.81;82.60;99574.36;106278;1260;97886;-82
2024/04/03 12:53:18;;;;;;;7.00;1.70;;;;;;;8.78;82.71;99578.87;106536;1261;96624;-82
2024/04/03 12:56:04;;;;;;;3.50;1.70;;;;;;;8.78;82.53;99581.67;106115;1261;101234;-81
2024/04/03 12:58:51;;;;;;;1.90;1.20;;;;;;;8.76;82.22;99584.16;106227;1260;99504;-80
2024/04/03 13:01:37;;;;;;;2.50;1.20;;;;;;;8.74;82.00;99587.69;106254;1264;97963;-81
2024/04/03 13:04:23;;;;;;;2.40;1.10;;;;;;;8.70;81.83;99593.71;106288;1261;97965;-80